< < Back
Terminal Aerodrome Forecast


Current Version              Previous Versions:   1  2  3  4  5  6  7  8  9  

Terminal Aerodrome Forecast

704
FTUS42 KTAE 301100
TAFDHN
TAF
KDHN 301120Z 3012/3112 01006KT P6SM BKN050 OVC100
     FM301400 36010KT P6SM SKC
     FM310300 33004KT P6SM SKC=



Latest METAR

959
SAUS70 KWBC 301800 RRA
MTRDHN
METAR KDHN 301753Z 34007KT 10SM CLR 21/03 A3005 RMK AO2 SLP170 T02110033
10211 20122 58020


USA.gov is the U.S. government's official web portal to all federal, state and local government web resources and services.